YMAV/AVV METAR and TAF weather

Enter ICAO airport designator
Station Type Date Time Source
YMAV METAR 2019/02/22 22:00 UTC NOAA

YMAV 222200Z AUTO 17008KT 9999 // OVC024 17/11 Q1026


Station Type Date Time Source
YMAV Decoded METAR 2019/02/22 22:00 UTC NOAA

Avalon, Avalon Airport, Australia (YMAV) 38-02S 144-29E
Feb 22, 2019 - 05:00 PM EST / 2019.02.22 2200 UTC
Wind: from the S (170 degrees) at 9 MPH (8 KT):0
Visibility: greater than 7 mile(s):0
Sky conditions: overcast
Temperature: 62 F (17 C)
Dew Point: 51 F (11 C)
Relative Humidity: 67%
Pressure (altimeter): 30.30 in. Hg (1026 hPa)
ob: YMAV 222200Z AUTO 17008KT 9999 // OVC024 17/11 Q1026
cycle: 22

Station Type Date Time Source
YMAV TAF 2019/02/22 18:30 UTC NOAA

TAF YMAV 221705Z 2218/2318 16012KT 9999 BKN025
FM230100 15015KT CAVOK
FM231100 10016KT CAVOK


Example: see airport list